KSUS/SUS METAR and TAF weather

Enter ICAO airport designator
Station Type Date Time Source
KSUS METAR 2021/04/14 18:54 UTC NOAA

KSUS 141854Z 31008G16KT 10SM CLR 16/01 A3012 RMK AO2 SLP199 T01610006


Station Type Date Time Source
KSUS Decoded METAR 2021/04/14 18:54 UTC NOAA

SPIRIT OF ST. LOUIS AIRPORT , MO, United States (KSUS) 38-39N 090-39W 141M
Apr 14, 2021 - 02:54 PM EDT / 2021.04.14 1854 UTC
Wind: from the NW (310 degrees) at 9 MPH (8 KT) gusting to 18 MPH (16 KT):0
Visibility: 10 mile(s):0
Sky conditions: clear
Temperature: 61.0 F (16.1 C)
Dew Point: 33.1 F (0.6 C)
Relative Humidity: 34%
Pressure (altimeter): 30.12 in. Hg (1019 hPa)
ob: KSUS 141854Z 31008G16KT 10SM CLR 16/01 A3012 RMK AO2 SLP199 T01610006
cycle: 19

Station Type Date Time Source
KSUS TAF 2021/04/14 18:22 UTC NOAA

TAF KSUS 141720Z 1418/1518 32010KT P6SM SKC
FM150400 32004KT P6SM FEW250

Example: see airport list